Nagasaki Maru — 8KYO — position and weather

sailwx.info

Track history (hours):
 
Tides and Currents Weather Stations Pressure Air Temp Water Temp Dewpoint Dewpoint Depression Visibility Wind Speed Wind Dir Waves Ship Positions

Oceanographic research ship Nagasaki Maru (Japan)

Detailed information on ship capabilities available from University of Delaware's Ocean Information Center.

Last reported at 2019-Jan-18 21:46 UTC. Time now 2019-Feb-21 16:29 UTC.
Position N 35°08' E 139°33'.
Warning: this ship's position is 33 days out of date.

Length 63 m; beam 11 m.

Type: Fishing. MMSI: 431397000.

Date/timePositionNaut miles runAvg speedWind from/ knotsBaromVisibWave heightAir tempDewpointWater temp
2019-Jan-18 21:46N 35°08' E 139°33'237 8.3
2019-Jan-17 17:17N 33°51' E 135°02'6 9.2
2019-Jan-17 16:40N 33°55' E 134°58'2 9.4
2019-Jan-17 16:29N 33°57' E 134°58'5 9.7
2019-Jan-17 16:01N 34°02' E 134°58'5 9.8
2019-Jan-17 15:31N 34°07' E 134°58'510.3
2019-Jan-17 15:00N 34°12' E 134°58'612.4
2019-Jan-17 14:30N 34°18' E 134°59'713.0
2019-Jan-17 14:00N 34°25' E 135°00'612.6
2019-Jan-17 13:30N 34°31' E 135°02'612.3
2019-Jan-17 13:00N 34°37' E 135°01'714.3
2019-Jan-17 12:29N 34°34' E 134°52'712.9
2019-Jan-17 11:59N 34°32' E 134°45'612.3
2019-Jan-17 11:30N 34°30' E 134°38'612.0
2019-Jan-17 11:00N 34°27' E 134°32'610.9
2019-Jan-17 10:30N 34°25' E 134°25'  
Track history (hours):
 
Tides and Currents Weather Stations Pressure Air Temp Water Temp Dewpoint Dewpoint Depression Visibility Wind Speed Wind Dir Waves Ship Positions

Oceanographic research ship Nagasaki Maru (Japan)

Detailed information on ship capabilities available from University of Delaware's Ocean Information Center.

Last reported at 2019-Jan-18 21:46 UTC. Time now 2019-Feb-21 16:29 UTC.
Position N 35°08' E 139°33'.
Warning: this ship's position is 33 days out of date.

Length 63 m; beam 11 m.

Type: Fishing. MMSI: 431397000.

Date/timePositionNaut miles runAvg speedWind from/ knotsBaromVisibWave heightAir tempDewpointWater temp
2019-Jan-18 21:46N 35°08' E 139°33'237 8.3
2019-Jan-17 17:17N 33°51' E 135°02'6 9.2
2019-Jan-17 16:40N 33°55' E 134°58'2 9.4
2019-Jan-17 16:29N 33°57' E 134°58'5 9.7
2019-Jan-17 16:01N 34°02' E 134°58'5 9.8
2019-Jan-17 15:31N 34°07' E 134°58'510.3
2019-Jan-17 15:00N 34°12' E 134°58'612.4
2019-Jan-17 14:30N 34°18' E 134°59'713.0
2019-Jan-17 14:00N 34°25' E 135°00'612.6
2019-Jan-17 13:30N 34°31' E 135°02'612.3
2019-Jan-17 13:00N 34°37' E 135°01'714.3
2019-Jan-17 12:29N 34°34' E 134°52'712.9
2019-Jan-17 11:59N 34°32' E 134°45'612.3
2019-Jan-17 11:30N 34°30' E 134°38'612.0
2019-Jan-17 11:00N 34°27' E 134°32'610.9
2019-Jan-17 10:30N 34°25' E 134°25'  

Dump ship's entire track history